createdAt,value
2024-01-20T00:00:15.783Z,34.90
2024-01-20T00:02:43.743Z,26.17
2024-01-20T00:05:12.219Z,27.77
2024-01-20T00:07:39.888Z,22.20
2024-01-20T00:10:12.461Z,20.83
2024-01-20T00:12:44.179Z,24.27
2024-01-20T00:15:12.844Z,21.00
2024-01-20T00:17:40.952Z,22.03
2024-01-20T00:20:10.754Z,26.17
2024-01-20T00:22:38.748Z,18.63
2024-01-20T00:25:06.297Z,30.50
2024-01-20T00:27:33.725Z,25.37
2024-01-20T00:30:01.628Z,20.37
2024-01-20T00:32:29.480Z,26.27
2024-01-20T00:35:06.034Z,28.23
2024-01-20T00:37:39.929Z,24.40
2024-01-20T00:40:08.598Z,26.20
2024-01-20T00:42:35.990Z,27.60
2024-01-20T00:45:07.236Z,23.97
2024-01-20T00:47:36.792Z,24.00
2024-01-20T00:50:06.544Z,29.43
2024-01-20T00:52:33.611Z,23.87
2024-01-20T00:55:00.582Z,28.80
2024-01-20T00:57:27.366Z,26.63
2024-01-20T00:59:54.212Z,23.03
2024-01-20T01:02:21.060Z,36.37
2024-01-20T01:04:48.156Z,27.07
2024-01-20T01:07:15.047Z,26.03
2024-01-20T01:09:41.898Z,25.83
2024-01-20T01:12:09.178Z,31.13
2024-01-20T01:14:36.016Z,32.20
2024-01-20T01:17:02.899Z,20.90
2024-01-20T01:19:29.761Z,24.37
2024-01-20T01:21:56.609Z,27.83
2024-01-20T01:24:23.408Z,32.57
2024-01-20T01:26:50.332Z,31.77
2024-01-20T01:29:17.429Z,22.80
2024-01-20T01:31:47.252Z,25.43
2024-01-20T01:34:14.571Z,24.63
2024-01-20T01:36:41.771Z,26.27
2024-01-20T01:39:08.586Z,29.67
2024-01-20T01:41:36.372Z,21.97
2024-01-20T01:44:03.944Z,30.23
2024-01-20T01:46:31.536Z,22.50
2024-01-20T01:48:58.934Z,31.17
2024-01-20T01:51:25.816Z,30.50
2024-01-20T01:53:53.265Z,24.13
2024-01-20T01:56:21.403Z,29.57
2024-01-20T01:58:48.552Z,24.67
2024-01-20T02:01:15.616Z,27.67
2024-01-20T02:03:45.920Z,23.30
2024-01-20T02:06:13.294Z,23.87
2024-01-20T02:08:42.501Z,22.20
2024-01-20T02:11:09.490Z,22.00
2024-01-20T02:13:37.233Z,28.87
2024-01-20T02:16:04.930Z,28.03
2024-01-20T02:18:32.176Z,27.40
2024-01-20T02:20:59.510Z,23.17
2024-01-20T02:23:26.405Z,29.67
2024-01-20T02:25:53.295Z,28.20
2024-01-20T02:28:20.199Z,26.10
2024-01-20T02:30:48.104Z,22.07
2024-01-20T02:33:15.213Z,28.43
2024-01-20T02:35:42.167Z,23.60
2024-01-20T02:38:09.014Z,21.50
2024-01-20T02:40:35.966Z,28.57
2024-01-20T02:43:03.119Z,29.93
2024-01-20T02:45:29.973Z,26.10
2024-01-20T02:47:57.380Z,23.20
2024-01-20T02:50:24.328Z,28.20
2024-01-20T02:52:55.875Z,25.70
2024-01-20T02:55:22.697Z,26.20
2024-01-20T02:57:49.522Z,25.90
2024-01-20T03:00:16.584Z,27.43
2024-01-20T03:02:43.401Z,22.83
2024-01-20T03:05:10.562Z,31.27
2024-01-20T03:07:37.442Z,31.20
2024-01-20T03:10:07.486Z,26.70
2024-01-20T03:12:37.484Z,26.37
2024-01-20T03:15:09.026Z,34.67
2024-01-20T03:17:36.150Z,29.17
2024-01-20T03:20:03.197Z,25.50
2024-01-20T03:22:30.035Z,37.97
2024-01-20T03:24:56.818Z,30.80
2024-01-20T03:27:23.678Z,25.37
2024-01-20T03:29:50.575Z,31.03
2024-01-20T03:32:17.438Z,30.97
2024-01-20T03:34:44.243Z,29.60
2024-01-20T03:37:11.254Z,29.53
2024-01-20T03:39:38.148Z,33.27
2024-01-20T03:42:05.456Z,25.43
2024-01-20T03:44:32.382Z,30.83
2024-01-20T03:46:59.510Z,31.73
2024-01-20T03:49:27.280Z,31.40
2024-01-20T03:51:54.205Z,24.07
2024-01-20T03:54:21.237Z,33.90
2024-01-20T03:56:48.132Z,24.40
2024-01-20T03:59:14.998Z,30.63
2024-01-20T04:01:41.950Z,27.83
2024-01-20T04:04:09.241Z,27.27
2024-01-20T04:06:36.404Z,39.77
2024-01-20T04:09:05.427Z,29.67
2024-01-20T04:11:32.217Z,22.07
2024-01-20T04:13:59.021Z,27.87
2024-01-20T04:16:25.982Z,34.10
2024-01-20T04:18:52.877Z,33.37
2024-01-20T04:21:19.681Z,27.83
2024-01-20T04:23:46.469Z,17.43
2024-01-20T04:26:13.492Z,30.73
2024-01-20T04:28:40.525Z,27.77
2024-01-20T04:31:07.466Z,26.17
2024-01-20T04:33:36.411Z,23.27
2024-01-20T04:36:04.641Z,24.70
2024-01-20T04:38:31.468Z,31.30
2024-01-20T04:40:58.309Z,23.23
2024-01-20T04:43:25.084Z,27.27
2024-01-20T04:45:51.928Z,37.50
2024-01-20T04:48:19.019Z,23.63
2024-01-20T04:50:46.034Z,22.00
2024-01-20T04:53:12.878Z,27.73
2024-01-20T04:55:39.897Z,25.50
2024-01-20T04:58:06.829Z,27.87
2024-01-20T05:00:35.383Z,25.57
2024-01-20T05:03:02.762Z,32.10
2024-01-20T05:05:29.695Z,36.67
2024-01-20T05:07:56.502Z,28.33
2024-01-20T05:10:23.395Z,29.37
2024-01-20T05:12:50.240Z,26.57
2024-01-20T05:15:17.116Z,28.63
2024-01-20T05:17:44.504Z,29.93
2024-01-20T05:20:15.556Z,28.83
2024-01-20T05:22:45.408Z,22.17
2024-01-20T05:25:12.990Z,29.70
2024-01-20T05:27:39.903Z,21.13
2024-01-20T05:30:07.765Z,21.87
2024-01-20T05:32:34.911Z,19.03
2024-01-20T05:35:01.798Z,20.73
2024-01-20T05:37:28.575Z,27.37
2024-01-20T05:39:55.359Z,23.10
2024-01-20T05:42:22.184Z,31.63
2024-01-20T05:44:48.981Z,28.60
2024-01-20T05:47:15.825Z,26.80
2024-01-20T05:49:42.711Z,23.53
2024-01-20T05:52:09.561Z,29.33
2024-01-20T05:54:36.390Z,10.07
2024-01-20T05:57:03.457Z,26.03
2024-01-20T05:59:30.414Z,27.07
2024-01-20T06:01:57.344Z,16.37
2024-01-20T06:04:25.081Z,20.63
2024-01-20T06:06:52.048Z,29.10
2024-01-20T06:09:18.948Z,29.17
2024-01-20T06:11:46.081Z,22.00
2024-01-20T06:14:12.885Z,25.90
2024-01-20T06:16:42.721Z,19.13
2024-01-20T06:19:10.165Z,24.27
2024-01-20T06:21:37.109Z,27.60
2024-01-20T06:24:04.303Z,24.03
2024-01-20T06:26:31.171Z,16.50
2024-01-20T06:28:58.131Z,18.23
2024-01-20T06:31:26.351Z,23.07
2024-01-20T06:33:54.243Z,25.70
2024-01-20T06:36:28.424Z,28.17
2024-01-20T06:38:55.419Z,15.33
2024-01-20T06:41:22.442Z,25.40
2024-01-20T06:43:53.939Z,31.17
2024-01-20T06:46:21.214Z,27.10
2024-01-20T06:48:48.138Z,31.00
2024-01-20T06:51:17.645Z,22.93
2024-01-20T06:53:45.136Z,31.50
2024-01-20T06:56:12.545Z,33.23
2024-01-20T06:58:39.475Z,33.13
2024-01-20T07:01:07.129Z,35.73
2024-01-20T07:03:34.060Z,21.27
2024-01-20T07:06:02.076Z,29.17
2024-01-20T07:08:29.162Z,31.67
2024-01-20T07:10:55.954Z,38.40
2024-01-20T07:13:22.921Z,23.23
2024-01-20T07:15:49.774Z,26.00
2024-01-20T07:18:16.760Z,30.23
2024-01-20T07:20:45.620Z,34.67
2024-01-20T07:23:12.771Z,26.93
2024-01-20T07:25:41.031Z,30.57
2024-01-20T07:28:10.307Z,29.57
2024-01-20T07:30:37.150Z,32.97
2024-01-20T07:33:04.325Z,32.27
2024-01-20T07:35:31.360Z,29.90
2024-01-20T07:37:58.321Z,27.80
2024-01-20T07:40:25.260Z,31.97
2024-01-20T07:42:52.172Z,28.73
2024-01-20T07:45:19.641Z,29.10
2024-01-20T07:47:48.000Z,27.70
2024-01-20T07:50:14.916Z,26.93
2024-01-20T07:52:41.800Z,36.13
2024-01-20T07:55:09.397Z,20.73
2024-01-20T07:57:36.239Z,26.33
2024-01-20T08:00:03.782Z,32.27
2024-01-20T08:02:30.759Z,32.87
2024-01-20T08:04:57.549Z,19.63
2024-01-20T08:07:24.671Z,28.67
2024-01-20T08:09:51.538Z,26.47
2024-01-20T08:12:18.361Z,23.17
2024-01-20T08:14:45.223Z,26.13
2024-01-20T08:17:11.995Z,24.67
2024-01-20T08:19:38.959Z,34.03
2024-01-20T08:22:08.164Z,36.00
2024-01-20T08:24:35.121Z,31.17
2024-01-20T08:27:02.011Z,30.30
2024-01-20T08:29:28.887Z,32.60
2024-01-20T08:31:56.184Z,25.87
2024-01-20T08:34:23.104Z,34.37
2024-01-20T08:36:49.997Z,22.60
2024-01-20T08:39:18.768Z,28.27
2024-01-20T08:41:47.039Z,24.33
2024-01-20T08:44:15.258Z,26.27
2024-01-20T08:46:42.388Z,29.37
2024-01-20T08:49:09.350Z,28.23
2024-01-20T08:51:36.211Z,22.67
2024-01-20T08:54:03.978Z,22.03
2024-01-20T08:56:32.060Z,17.03
2024-01-20T08:58:59.778Z,22.27
2024-01-20T09:01:26.947Z,28.17
2024-01-20T09:03:53.854Z,24.13
2024-01-20T09:06:20.839Z,24.90
2024-01-20T09:08:47.764Z,26.33
2024-01-20T09:11:14.641Z,28.37
2024-01-20T09:13:41.962Z,21.93
2024-01-20T09:16:10.845Z,20.13
2024-01-20T09:18:37.910Z,24.83
2024-01-20T09:21:05.443Z,28.53
2024-01-20T09:23:32.606Z,22.37
2024-01-20T09:26:00.482Z,26.23
2024-01-20T09:28:29.641Z,25.00
2024-01-20T09:30:56.504Z,24.00
2024-01-20T09:33:23.393Z,30.23
2024-01-20T09:35:50.281Z,22.87
2024-01-20T09:38:17.077Z,9.07
2024-01-20T09:40:43.928Z,24.40
2024-01-20T09:43:11.593Z,23.70
2024-01-20T09:45:40.356Z,23.30
2024-01-20T09:48:08.246Z,29.57
2024-01-20T09:50:35.535Z,26.17
2024-01-20T09:53:15.105Z,25.73
2024-01-20T09:55:46.845Z,25.37
2024-01-20T09:58:15.435Z,20.43
2024-01-20T10:00:43.227Z,26.23
2024-01-20T10:03:12.190Z,29.53
2024-01-20T10:05:39.918Z,16.07
2024-01-20T10:08:07.532Z,26.97
2024-01-20T10:10:34.628Z,23.15
2024-01-20T10:13:04.566Z,23.47
2024-01-20T10:15:35.521Z,27.70
2024-01-20T10:18:10.320Z,23.98
2024-01-20T10:20:38.096Z,29.30
2024-01-20T10:23:07.602Z,24.50
2024-01-20T10:25:34.856Z,26.60
2024-01-20T10:28:01.891Z,28.88
2024-01-20T10:30:30.674Z,30.95
2024-01-20T10:33:08.891Z,27.08
2024-01-20T10:35:37.913Z,23.38
2024-01-20T10:38:10.039Z,26.60
2024-01-20T10:40:41.577Z,25.38
2024-01-20T10:43:17.398Z,26.10
2024-01-20T10:46:01.723Z,27.73
2024-01-20T10:48:35.391Z,26.17
2024-01-20T10:51:08.798Z,24.52
2024-01-20T10:53:37.003Z,24.60
2024-01-20T10:56:05.793Z,26.52
2024-01-20T10:58:36.947Z,25.98
2024-01-20T11:01:07.004Z,28.02
2024-01-20T11:03:34.397Z,22.80
2024-01-20T11:06:01.557Z,25.38
2024-01-20T11:08:28.654Z,29.90
2024-01-20T11:10:56.014Z,31.65
2024-01-20T11:13:27.648Z,25.95
2024-01-20T11:15:56.892Z,29.73
2024-01-20T11:18:25.061Z,27.92
2024-01-20T11:20:59.324Z,28.52
2024-01-20T11:23:26.916Z,32.58
2024-01-20T11:25:54.912Z,25.17
2024-01-20T11:28:48.923Z,27.05
2024-01-20T11:31:20.434Z,33.70
2024-01-20T11:33:48.331Z,33.10
2024-01-20T11:36:17.093Z,27.20
2024-01-20T11:38:45.104Z,22.05
2024-01-20T11:41:12.188Z,26.40
2024-01-20T11:43:46.122Z,28.70
2024-01-20T11:46:13.566Z,31.25
2024-01-20T11:48:40.610Z,30.70
2024-01-20T11:51:07.890Z,27.95
2024-01-20T11:53:35.411Z,26.63
2024-01-20T11:56:04.550Z,28.73
2024-01-20T11:58:34.479Z,29.25
2024-01-20T12:01:03.185Z,29.10
2024-01-20T12:03:30.558Z,29.10
2024-01-20T12:05:58.102Z,32.90
2024-01-20T12:08:25.396Z,28.98
2024-01-20T12:10:52.514Z,26.38
2024-01-20T12:13:19.777Z,27.83
2024-01-20T12:15:48.282Z,29.65
2024-01-20T12:18:18.177Z,26.67
2024-01-20T12:20:46.288Z,30.88
2024-01-20T12:23:19.572Z,27.30
2024-01-20T12:25:46.611Z,24.55
2024-01-20T12:28:13.381Z,31.13
2024-01-20T12:30:40.447Z,29.08
2024-01-20T12:33:07.457Z,30.75
2024-01-20T12:35:35.037Z,27.88
2024-01-20T12:38:01.868Z,28.45
2024-01-20T12:40:30.888Z,27.73
2024-01-20T12:42:57.982Z,27.90
2024-01-20T12:45:25.079Z,35.17
2024-01-20T12:47:52.198Z,30.08
2024-01-20T12:50:19.394Z,31.33
2024-01-20T12:52:46.726Z,31.92
2024-01-20T12:55:13.662Z,24.42
2024-01-20T12:57:40.876Z,24.05
2024-01-20T13:00:11.707Z,26.27
2024-01-20T13:02:38.781Z,25.02
2024-01-20T13:05:06.579Z,23.73
2024-01-20T13:07:33.483Z,24.58
2024-01-20T13:10:00.409Z,23.67
2024-01-20T13:12:27.423Z,23.95
2024-01-20T13:14:54.419Z,24.30
2024-01-20T13:17:21.318Z,25.73
2024-01-20T13:19:48.196Z,28.42
2024-01-20T13:22:15.135Z,22.80
2024-01-20T13:24:42.124Z,25.73
2024-01-20T13:27:09.099Z,26.17
2024-01-20T13:29:36.019Z,25.17
2024-01-20T13:32:03.008Z,25.20
2024-01-20T13:34:29.888Z,29.17
2024-01-20T13:36:57.076Z,24.60
2024-01-20T13:39:24.031Z,23.67
2024-01-20T13:41:52.006Z,26.00
2024-01-20T13:44:19.099Z,23.63
2024-01-20T13:46:46.032Z,25.48
2024-01-20T13:49:14.125Z,23.58
2024-01-20T13:51:41.199Z,24.52
2024-01-20T13:54:08.348Z,22.50
2024-01-20T13:56:35.216Z,25.02
2024-01-20T13:59:04.022Z,25.38
2024-01-20T14:01:31.081Z,28.92
2024-01-20T14:03:58.947Z,24.23
2024-01-20T14:06:26.164Z,25.77
2024-01-20T14:08:53.592Z,26.63
2024-01-20T14:11:20.580Z,27.95
2024-01-20T14:13:47.417Z,25.83
2024-01-20T14:16:14.373Z,27.40
2024-01-20T14:18:41.317Z,29.27
2024-01-20T14:21:08.301Z,25.75
2024-01-20T14:23:35.150Z,28.20
2024-01-20T14:26:02.270Z,28.77
2024-01-20T14:28:29.251Z,28.02
2024-01-20T14:30:56.195Z,23.80
2024-01-20T14:33:23.370Z,24.55
2024-01-20T14:35:50.405Z,27.10
2024-01-20T14:38:17.356Z,29.08
2024-01-20T14:40:44.582Z,31.92
2024-01-20T14:43:11.556Z,30.98
2024-01-20T14:45:38.374Z,30.85
2024-01-20T14:48:05.888Z,29.50
2024-01-20T14:50:33.062Z,35.33
2024-01-20T14:53:00.010Z,36.55
2024-01-20T14:55:29.317Z,38.58
2024-01-20T14:57:57.719Z,35.20
2024-01-20T15:00:24.662Z,41.20
2024-01-20T15:02:52.160Z,40.15
2024-01-20T15:05:19.906Z,38.33
2024-01-20T15:07:46.709Z,42.67
2024-01-20T15:10:13.682Z,40.57
2024-01-20T15:12:40.685Z,36.50
2024-01-20T15:15:07.965Z,40.60
2024-01-20T15:17:34.910Z,43.00
2024-01-20T15:20:01.982Z,36.40
2024-01-20T15:22:28.798Z,37.87
2024-01-20T15:24:55.714Z,38.03
2024-01-20T15:27:22.701Z,41.43
2024-01-20T15:29:49.697Z,41.57
2024-01-20T15:32:16.577Z,40.90
2024-01-20T15:34:43.517Z,39.10
2024-01-20T15:37:10.708Z,40.97
2024-01-20T15:39:37.657Z,40.27
2024-01-20T15:42:04.777Z,43.47
2024-01-20T15:44:31.650Z,39.37
2024-01-20T15:46:59.015Z,38.37
2024-01-20T15:49:25.961Z,42.00
2024-01-20T15:51:52.992Z,39.93
2024-01-20T15:54:19.872Z,38.63
2024-01-20T15:56:46.712Z,42.67
2024-01-20T15:59:13.628Z,41.13
2024-01-20T16:01:40.582Z,40.27
2024-01-20T16:04:07.684Z,41.63
2024-01-20T16:06:34.794Z,37.67
2024-01-20T16:09:01.917Z,37.37
2024-01-20T16:11:29.307Z,44.43
2024-01-20T16:13:56.147Z,43.00
2024-01-20T16:16:23.733Z,44.43
2024-01-20T16:18:50.782Z,39.10
2024-01-20T16:21:24.970Z,46.53
2024-01-20T16:23:52.789Z,45.00
2024-01-20T16:26:22.574Z,45.97
2024-01-20T16:28:50.483Z,53.17
2024-01-20T16:31:17.886Z,40.57
2024-01-20T16:33:46.398Z,56.50
2024-01-20T16:36:25.481Z,65.50
2024-01-20T16:38:52.648Z,52.67
2024-01-20T16:41:19.834Z,59.97
2024-01-20T16:43:46.616Z,52.23
2024-01-20T16:46:13.481Z,55.90
2024-01-20T16:48:40.734Z,61.93
2024-01-20T16:51:15.056Z,49.30
2024-01-20T16:53:49.152Z,48.10
2024-01-20T16:56:16.001Z,46.87
2024-01-20T16:58:43.067Z,44.07
2024-01-20T17:01:09.930Z,49.97
2024-01-20T17:03:36.828Z,56.00
2024-01-20T17:06:04.002Z,55.00
2024-01-20T17:08:30.829Z,58.17
2024-01-20T17:10:57.615Z,41.40
2024-01-20T17:13:24.514Z,54.37
2024-01-20T17:15:52.379Z,51.03
2024-01-20T17:18:19.317Z,52.83
2024-01-20T17:20:46.321Z,56.00
2024-01-20T17:23:13.311Z,59.27
2024-01-20T17:25:40.069Z,56.67
2024-01-20T17:28:06.909Z,52.10
2024-01-20T17:30:33.779Z,56.97
2024-01-20T17:33:00.807Z,51.33
2024-01-20T17:35:27.781Z,55.80
2024-01-20T17:37:57.078Z,65.43
2024-01-20T17:40:23.971Z,56.00
2024-01-20T17:42:51.218Z,55.10
2024-01-20T17:45:18.123Z,52.20
2024-01-20T17:47:47.330Z,65.70
2024-01-20T17:50:14.866Z,48.93
2024-01-20T17:52:41.877Z,65.07
2024-01-20T17:55:09.129Z,71.33
2024-01-20T17:57:37.010Z,56.57
2024-01-20T18:00:05.228Z,51.80
2024-01-20T18:02:32.419Z,59.00
2024-01-20T18:04:59.470Z,66.00
2024-01-20T18:07:26.414Z,53.37
2024-01-20T18:09:53.230Z,54.17
2024-01-20T18:12:20.119Z,64.33
2024-01-20T18:14:46.950Z,51.73
2024-01-20T18:17:16.720Z,69.10
2024-01-20T18:19:43.717Z,68.97
2024-01-20T18:22:10.560Z,61.90
2024-01-20T18:24:38.930Z,69.33
2024-01-20T18:27:06.508Z,70.80
2024-01-20T18:29:33.446Z,58.67
2024-01-20T18:32:00.488Z,68.13
2024-01-20T18:34:27.343Z,70.70
2024-01-20T18:36:56.267Z,61.60
2024-01-20T18:39:23.085Z,64.00
2024-01-20T18:41:50.029Z,64.07
2024-01-20T18:44:16.845Z,53.83
2024-01-20T18:46:43.708Z,59.90
2024-01-20T18:49:11.046Z,71.83
2024-01-20T18:51:38.139Z,63.17
2024-01-20T18:54:05.393Z,69.93
2024-01-20T18:56:32.591Z,66.53
2024-01-20T18:58:59.511Z,73.87
2024-01-20T19:01:29.397Z,70.57
2024-01-20T19:03:56.576Z,63.83
2024-01-20T19:06:26.168Z,75.20
2024-01-20T19:08:53.094Z,70.20
2024-01-20T19:11:20.400Z,67.20
2024-01-20T19:13:48.735Z,68.03
2024-01-20T19:16:15.739Z,71.27
2024-01-20T19:18:42.643Z,74.67
2024-01-20T19:21:10.693Z,79.80
2024-01-20T19:23:42.425Z,77.20
2024-01-20T19:26:12.260Z,70.17
2024-01-20T19:28:40.208Z,73.33
2024-01-20T19:31:07.851Z,76.10
2024-01-20T19:33:34.924Z,78.67
2024-01-20T19:36:01.933Z,73.90
2024-01-20T19:38:29.063Z,71.70
2024-01-20T19:40:55.978Z,79.80
2024-01-20T19:43:22.936Z,77.17
2024-01-20T19:45:49.783Z,75.83
2024-01-20T19:48:17.896Z,78.83
2024-01-20T19:50:45.064Z,74.50
2024-01-20T19:53:12.072Z,72.10
2024-01-20T19:55:38.966Z,79.70
2024-01-20T19:58:05.890Z,76.27
2024-01-20T20:00:32.773Z,81.97
2024-01-20T20:03:00.798Z,65.47
2024-01-20T20:05:27.881Z,85.10
2024-01-20T20:07:54.817Z,85.43
2024-01-20T20:10:21.668Z,73.80
2024-01-20T20:12:49.038Z,78.97
2024-01-20T20:15:16.021Z,72.93
2024-01-20T20:17:44.677Z,74.30
2024-01-20T20:20:12.464Z,70.40
2024-01-20T20:22:39.773Z,66.20
2024-01-20T20:25:06.839Z,68.67
2024-01-20T20:27:33.663Z,73.50
2024-01-20T20:30:00.580Z,77.30
2024-01-20T20:32:27.990Z,72.47
2024-01-20T20:34:55.056Z,51.30
2024-01-20T20:37:22.752Z,66.90
2024-01-20T20:39:50.141Z,73.17
2024-01-20T20:42:17.873Z,81.67
2024-01-20T20:44:44.950Z,81.63
2024-01-20T20:47:11.988Z,71.63
2024-01-20T20:49:39.125Z,66.23
2024-01-20T20:52:06.128Z,62.40
2024-01-20T20:54:33.060Z,68.87
2024-01-20T20:57:00.289Z,78.70
2024-01-20T20:59:27.084Z,73.27
2024-01-20T21:01:54.031Z,44.37
2024-01-20T21:04:20.949Z,15.37
2024-01-20T21:06:47.851Z,66.37
2024-01-20T21:09:17.733Z,38.50
2024-01-20T21:11:44.674Z,85.63
2024-01-20T21:14:11.524Z,71.67
2024-01-20T21:16:38.361Z,77.87
2024-01-20T21:19:05.254Z,52.37
2024-01-20T21:21:32.148Z,75.10
2024-01-20T21:23:59.055Z,74.70
2024-01-20T21:26:25.920Z,73.73
2024-01-20T21:28:52.810Z,82.73
2024-01-20T21:31:19.713Z,63.73
2024-01-20T21:33:47.176Z,39.13
2024-01-20T21:36:14.314Z,73.13
2024-01-20T21:38:41.987Z,57.47
2024-01-20T21:41:08.811Z,65.90
2024-01-20T21:43:35.607Z,45.83
2024-01-20T21:46:02.556Z,64.13
2024-01-20T21:48:29.627Z,95.33
2024-01-20T21:50:58.108Z,75.77
2024-01-20T21:53:25.286Z,64.87
2024-01-20T21:55:52.173Z,70.10
2024-01-20T21:58:19.209Z,45.67
2024-01-20T22:00:46.821Z,28.43
2024-01-20T22:03:13.896Z,61.10
2024-01-20T22:05:41.012Z,86.50
2024-01-20T22:08:07.991Z,63.23
2024-01-20T22:10:34.936Z,44.07
2024-01-20T22:13:01.981Z,73.37
2024-01-20T22:15:29.541Z,74.57
2024-01-20T22:17:56.537Z,70.03
2024-01-20T22:20:24.352Z,65.30
2024-01-20T22:22:51.523Z,58.03
2024-01-20T22:25:18.886Z,46.80
2024-01-20T22:27:46.042Z,62.23
2024-01-20T22:30:13.342Z,71.10
2024-01-20T22:32:40.780Z,61.83
2024-01-20T22:35:08.103Z,71.67
2024-01-20T22:37:35.050Z,76.40
2024-01-20T22:40:03.762Z,86.50
2024-01-20T22:42:31.423Z,66.43
2024-01-20T22:44:58.453Z,76.90
2024-01-20T22:47:25.464Z,79.30
2024-01-20T22:49:52.451Z,71.97
2024-01-20T22:52:19.459Z,73.57
2024-01-20T22:54:46.525Z,67.47
2024-01-20T22:57:13.651Z,73.57
2024-01-20T22:59:41.657Z,71.00
2024-01-20T23:02:08.553Z,57.03
2024-01-20T23:04:35.535Z,72.73
2024-01-20T23:07:02.567Z,127.83
2024-01-20T23:09:29.499Z,64.30
2024-01-20T23:11:56.769Z,81.93
2024-01-20T23:14:23.667Z,68.77
2024-01-20T23:16:51.543Z,118.40
2024-01-20T23:19:18.470Z,91.30
2024-01-20T23:21:45.399Z,126.87
2024-01-20T23:24:12.556Z,52.67
2024-01-20T23:26:43.591Z,82.67
2024-01-20T23:29:10.865Z,89.77
2024-01-20T23:31:38.475Z,70.30
2024-01-20T23:34:05.759Z,74.73
2024-01-20T23:36:32.884Z,79.63
2024-01-20T23:38:59.693Z,89.47
2024-01-20T23:41:26.588Z,79.33
2024-01-20T23:43:53.443Z,82.20
2024-01-20T23:46:20.268Z,76.97
2024-01-20T23:48:47.311Z,49.57
2024-01-20T23:51:15.225Z,70.70
2024-01-20T23:53:42.829Z,65.27
2024-01-20T23:56:10.563Z,53.53
2024-01-20T23:58:37.465Z,90.33
